createdAt,value
2022-12-01T00:01:02.215Z,99766.44
2022-12-01T00:03:32.698Z,99767.16
2022-12-01T00:06:03.239Z,99767.03
2022-12-01T00:08:30.361Z,99765.47
2022-12-01T00:11:06.397Z,99777.69
2022-12-01T00:13:34.073Z,99769.88
2022-12-01T00:16:11.146Z,99772.53
2022-12-01T00:18:38.529Z,99773.31
2022-12-01T00:21:05.880Z,99767.13
2022-12-01T00:23:32.972Z,99767.94
2022-12-01T00:26:04.780Z,99759.06
2022-12-01T00:28:31.899Z,99768.22
2022-12-01T00:31:00.141Z,99775.16
2022-12-01T00:33:27.176Z,99765.06
2022-12-01T00:36:01.024Z,99758.50
2022-12-01T00:38:28.256Z,99763.00
2022-12-01T00:40:54.969Z,99769.03
2022-12-01T00:43:22.058Z,99767.22
2022-12-01T00:45:48.829Z,99759.31
2022-12-01T00:48:16.040Z,99768.34
2022-12-01T00:50:42.808Z,99763.91
2022-12-01T00:53:09.850Z,99761.97
2022-12-01T00:55:36.563Z,99758.44
2022-12-01T00:58:04.455Z,99756.84
2022-12-01T01:00:31.188Z,99759.50
2022-12-01T01:02:58.202Z,99758.63
2022-12-01T01:05:24.934Z,99763.06
2022-12-01T01:07:52.026Z,99749.47
2022-12-01T01:10:18.808Z,99752.97
2022-12-01T01:12:45.828Z,99746.03
2022-12-01T01:15:12.767Z,99745.94
2022-12-01T01:17:39.907Z,99747.75
2022-12-01T01:20:07.796Z,99748.66
2022-12-01T01:22:35.256Z,99757.56
2022-12-01T01:25:01.951Z,99753.94
2022-12-01T01:27:29.034Z,99739.75
2022-12-01T01:29:55.768Z,99746.88
2022-12-01T01:32:22.943Z,99742.41
2022-12-01T01:34:49.663Z,99728.13
2022-12-01T01:37:16.687Z,99729.06
2022-12-01T01:39:43.431Z,99722.75
2022-12-01T01:42:12.990Z,99723.84
2022-12-01T01:44:45.727Z,99726.31
2022-12-01T01:47:12.739Z,99725.41
2022-12-01T01:49:39.796Z,99712.19
2022-12-01T01:52:06.920Z,99712.09
2022-12-01T01:54:36.110Z,99711.97
2022-12-01T01:57:03.854Z,99712.91
2022-12-01T01:59:39.190Z,99709.31
2022-12-01T02:02:08.619Z,99707.47
2022-12-01T02:04:36.679Z,99710.22
2022-12-01T02:07:04.167Z,99703.31
2022-12-01T02:09:30.911Z,99703.03
2022-12-01T02:12:50.665Z,99711.97
2022-12-01T02:15:26.260Z,99704.81
2022-12-01T02:18:07.074Z,99713.88
2022-12-01T02:20:42.086Z,99706.03
2022-12-01T02:23:15.079Z,99706.00
2022-12-01T02:26:04.675Z,99704.00
2022-12-01T02:28:40.782Z,99707.56
2022-12-01T02:31:17.986Z,99704.03
2022-12-01T02:33:57.745Z,99707.03
2022-12-01T02:36:50.004Z,99710.69
2022-12-01T02:39:39.105Z,99715.03
2022-12-01T02:42:09.701Z,99707.50
2022-12-01T02:44:40.123Z,99706.41
2022-12-01T02:47:12.172Z,99702.25
2022-12-01T02:49:45.247Z,99704.38
2022-12-01T02:52:11.945Z,99695.13
2022-12-01T02:54:38.981Z,99694.03
2022-12-01T02:57:05.704Z,99699.31
2022-12-01T02:59:32.768Z,99701.03
2022-12-01T03:02:14.831Z,99700.03
2022-12-01T03:05:04.690Z,99692.88
2022-12-01T03:07:37.677Z,99687.41
2022-12-01T03:10:08.920Z,99702.66
2022-12-01T03:12:56.442Z,99697.31
2022-12-01T03:15:32.710Z,99693.59
2022-12-01T03:18:19.714Z,99696.25
2022-12-01T03:20:52.241Z,99691.94
2022-12-01T03:23:21.264Z,99682.88
2022-12-01T03:25:49.180Z,99678.44
2022-12-01T03:28:22.194Z,99682.06
2022-12-01T03:30:51.180Z,99683.72
2022-12-01T03:33:55.817Z,99679.25
2022-12-01T03:36:32.876Z,99672.25
2022-12-01T03:39:00.684Z,99673.97
2022-12-01T03:41:31.821Z,99674.94
2022-12-01T03:44:06.192Z,99677.78
2022-12-01T03:46:41.257Z,99680.41
2022-12-01T03:49:09.665Z,99675.13
2022-12-01T03:51:51.328Z,99669.69
2022-12-01T03:54:46.641Z,99670.53
2022-12-01T03:57:16.628Z,99666.88
2022-12-01T03:59:43.359Z,99664.44
2022-12-01T04:02:10.420Z,99664.41
2022-12-01T04:04:37.280Z,99663.56
2022-12-01T04:07:04.390Z,99656.44
2022-12-01T04:09:31.121Z,99658.44
2022-12-01T04:12:16.786Z,99664.66
2022-12-01T04:14:43.542Z,99659.53
2022-12-01T04:17:10.519Z,99661.88
2022-12-01T04:19:37.218Z,99659.25
2022-12-01T04:22:04.237Z,99660.22
2022-12-01T04:24:31.042Z,99655.19
2022-12-01T04:26:58.042Z,99654.84
2022-12-01T04:29:24.742Z,99658.44
2022-12-01T04:31:51.899Z,99655.56
2022-12-01T04:34:18.627Z,99653.88
2022-12-01T04:36:45.671Z,99666.31
2022-12-01T04:39:12.385Z,99650.41
2022-12-01T04:41:39.455Z,99669.22
2022-12-01T04:44:06.198Z,99673.47
2022-12-01T04:46:33.272Z,99670.75
2022-12-01T04:49:00.077Z,99671.78
2022-12-01T04:51:27.159Z,99680.59
2022-12-01T04:53:53.902Z,99676.06
2022-12-01T04:56:21.276Z,99676.50
2022-12-01T04:58:48.178Z,99676.38
2022-12-01T05:01:16.641Z,99672.84
2022-12-01T05:03:44.944Z,99678.84
2022-12-01T05:06:16.898Z,99675.22
2022-12-01T05:08:43.680Z,99671.50
2022-12-01T05:11:12.183Z,99673.25
2022-12-01T05:13:42.513Z,99673.41
2022-12-01T05:16:11.506Z,99663.69
2022-12-01T05:18:38.394Z,99667.25
2022-12-01T05:21:06.069Z,99670.69
2022-12-01T05:23:33.960Z,99671.63
2022-12-01T05:26:01.140Z,99671.56
2022-12-01T05:28:27.976Z,99667.25
2022-12-01T05:30:55.189Z,99679.19
2022-12-01T05:33:22.678Z,99684.31
2022-12-01T05:35:49.940Z,99678.03
2022-12-01T05:38:16.793Z,99672.44
2022-12-01T05:40:49.163Z,99663.44
2022-12-01T05:43:15.871Z,99670.63
2022-12-01T05:45:42.996Z,99671.28
2022-12-01T05:48:09.729Z,99669.78
2022-12-01T05:50:38.522Z,99666.31
2022-12-01T05:53:05.828Z,99670.78
2022-12-01T05:55:34.356Z,99674.34
2022-12-01T05:58:01.525Z,99687.63
2022-12-01T06:00:28.631Z,99676.84
2022-12-01T06:02:55.383Z,99684.06
2022-12-01T06:05:22.458Z,99688.00
2022-12-01T06:07:49.231Z,99692.22
2022-12-01T06:10:16.487Z,99692.13
2022-12-01T06:12:43.173Z,99693.97
2022-12-01T06:15:10.807Z,99692.19
2022-12-01T06:17:40.397Z,99695.13
2022-12-01T06:20:08.393Z,99699.47
2022-12-01T06:22:35.151Z,99698.41
2022-12-01T06:25:02.164Z,99699.38
2022-12-01T06:27:28.991Z,99706.34
2022-12-01T06:29:56.023Z,99698.41
2022-12-01T06:32:22.785Z,99698.31
2022-12-01T06:34:49.777Z,99699.13
2022-12-01T06:37:16.796Z,99702.75
2022-12-01T06:39:43.862Z,99700.38
2022-12-01T06:42:10.631Z,99698.50
2022-12-01T06:44:38.819Z,99694.66
2022-12-01T06:47:05.595Z,99695.44
2022-12-01T06:49:32.729Z,99687.31
2022-12-01T06:52:01.061Z,99690.88
2022-12-01T06:54:28.313Z,99697.25
2022-12-01T06:56:55.102Z,99701.50
2022-12-01T06:59:22.659Z,99702.44
2022-12-01T07:01:49.824Z,99696.44
2022-12-01T07:04:17.032Z,99702.75
2022-12-01T07:06:43.747Z,99715.38
2022-12-01T07:09:10.742Z,99712.75
2022-12-01T07:11:38.615Z,99709.22
2022-12-01T07:14:05.650Z,99713.41
2022-12-01T07:16:32.468Z,99712.25
2022-12-01T07:19:00.050Z,99714.84
2022-12-01T07:21:26.818Z,99715.81
2022-12-01T07:23:54.643Z,99716.63
2022-12-01T07:26:21.595Z,99711.69
2022-12-01T07:28:48.686Z,99711.69
2022-12-01T07:31:17.510Z,99708.78
2022-12-01T07:33:44.599Z,99717.50
2022-12-01T07:36:11.899Z,99718.50
2022-12-01T07:38:39.206Z,99717.59
2022-12-01T07:41:13.790Z,99717.97
2022-12-01T07:43:41.074Z,99719.63
2022-12-01T07:46:17.213Z,99714.34
2022-12-01T07:48:48.781Z,99708.97
2022-12-01T07:51:18.932Z,99715.06
2022-12-01T07:53:46.776Z,99716.75
2022-12-01T07:56:13.774Z,99716.59
2022-12-01T07:58:40.998Z,99712.16
2022-12-01T08:01:18.305Z,99719.25
2022-12-01T08:03:45.375Z,99720.44
2022-12-01T08:06:12.138Z,99719.63
2022-12-01T08:08:40.037Z,99718.34
2022-12-01T08:11:10.108Z,99722.13
2022-12-01T08:13:37.461Z,99719.56
2022-12-01T08:16:05.406Z,99725.03
2022-12-01T08:18:35.425Z,99722.41
2022-12-01T08:21:02.298Z,99724.97
2022-12-01T08:23:29.341Z,99718.59
2022-12-01T08:25:57.600Z,99718.78
2022-12-01T08:28:24.704Z,99723.13
2022-12-01T08:30:51.523Z,99721.22
2022-12-01T08:33:18.629Z,99722.72
2022-12-01T08:35:45.424Z,99719.31
2022-12-01T08:38:12.454Z,99716.63
2022-12-01T08:40:39.245Z,99721.00
2022-12-01T08:43:06.388Z,99720.81
2022-12-01T08:45:33.180Z,99720.81
2022-12-01T08:48:00.406Z,99719.06
2022-12-01T08:50:27.516Z,99724.44
2022-12-01T08:52:54.576Z,99730.78
2022-12-01T08:55:22.040Z,99728.44
2022-12-01T08:57:49.097Z,99725.56
2022-12-01T09:00:16.415Z,99723.88
2022-12-01T09:02:43.554Z,99719.91
2022-12-01T09:05:10.333Z,99719.88
2022-12-01T09:07:37.461Z,99721.91
2022-12-01T09:10:05.181Z,99722.94
2022-12-01T09:12:32.212Z,99727.31
2022-12-01T09:14:58.911Z,99716.53
2022-12-01T09:17:25.968Z,99711.06
2022-12-01T09:19:52.838Z,99716.38
2022-12-01T09:22:19.884Z,99713.91
2022-12-01T09:24:46.634Z,99711.09
2022-12-01T09:27:13.779Z,99701.94
2022-12-01T09:29:40.532Z,99704.50
2022-12-01T09:32:07.573Z,99702.66
2022-12-01T09:34:34.281Z,99703.69
2022-12-01T09:37:01.337Z,99693.09
2022-12-01T09:39:28.137Z,99694.81
2022-12-01T09:42:08.243Z,99691.13
2022-12-01T09:44:45.506Z,99689.22
2022-12-01T09:47:30.220Z,99682.75
2022-12-01T09:50:04.445Z,99680.19
2022-12-01T09:52:40.286Z,99684.78
2022-12-01T09:55:14.286Z,99683.66
2022-12-01T09:57:41.634Z,99689.91
2022-12-01T10:00:13.448Z,99687.56
2022-12-01T10:03:03.076Z,99683.06
2022-12-01T10:05:34.677Z,99678.22
2022-12-01T10:08:03.846Z,99675.00
2022-12-01T10:10:38.762Z,99673.16
2022-12-01T10:13:25.888Z,99677.47
2022-12-01T10:15:58.874Z,99679.97
2022-12-01T10:18:25.932Z,99684.44
2022-12-01T10:21:19.764Z,99676.72
2022-12-01T10:24:05.536Z,99672.28
2022-12-01T10:26:38.329Z,99664.97
2022-12-01T10:29:23.652Z,99675.50
2022-12-01T10:32:30.574Z,99668.25
2022-12-01T10:34:57.685Z,99674.53
2022-12-01T10:37:26.311Z,99668.25
2022-12-01T10:39:54.483Z,99665.34
2022-12-01T10:42:36.438Z,99674.31
2022-12-01T10:45:10.684Z,99675.50
2022-12-01T10:47:37.385Z,99674.47
2022-12-01T10:50:04.790Z,99668.56
2022-12-01T10:52:38.339Z,99665.13
2022-12-01T10:55:23.714Z,99667.88
2022-12-01T10:57:50.907Z,99660.78
2022-12-01T11:00:57.925Z,99657.81
2022-12-01T11:03:22.086Z,99656.06
2022-12-01T11:05:54.822Z,99659.63
2022-12-01T11:08:41.867Z,99665.25
2022-12-01T11:11:26.047Z,99662.53
2022-12-01T11:13:52.805Z,99663.44
2022-12-01T11:16:36.510Z,99662.41
2022-12-01T11:19:26.939Z,99662.31
2022-12-01T11:21:59.237Z,99658.63
2022-12-01T11:24:31.037Z,99658.53
2022-12-01T11:26:58.551Z,99660.34
2022-12-01T11:29:37.629Z,99663.16
2022-12-01T11:32:15.810Z,99662.09
2022-12-01T11:34:42.606Z,99661.25
2022-12-01T11:37:15.901Z,99658.00
2022-12-01T11:39:43.379Z,99651.00
2022-12-01T11:42:13.472Z,99651.84
2022-12-01T11:44:53.259Z,99655.16
2022-12-01T11:47:25.333Z,99650.78
2022-12-01T11:50:03.380Z,99657.88
2022-12-01T11:52:32.697Z,99650.47
2022-12-01T11:55:20.843Z,99652.44
2022-12-01T11:57:50.081Z,99654.16
2022-12-01T12:00:17.266Z,99650.03
2022-12-01T12:03:13.718Z,99637.16
2022-12-01T12:05:45.527Z,99651.09
2022-12-01T12:08:27.908Z,99644.25
2022-12-01T12:10:54.736Z,99652.28
2022-12-01T12:13:35.545Z,99646.72
2022-12-01T12:16:30.286Z,99650.47
2022-12-01T12:19:39.277Z,99658.56
2022-12-01T12:22:37.170Z,99651.69
2022-12-01T12:25:12.248Z,99656.91
2022-12-01T12:27:42.000Z,99646.34
2022-12-01T12:30:16.561Z,99649.88
2022-12-01T12:33:02.047Z,99651.56
2022-12-01T12:35:35.346Z,99651.25
2022-12-01T12:38:05.172Z,99647.72
2022-12-01T12:40:32.184Z,99652.28
2022-12-01T12:43:20.976Z,99651.25
2022-12-01T12:45:57.210Z,99653.66
2022-12-01T12:49:03.875Z,99653.81
2022-12-01T12:51:45.108Z,99644.38
2022-12-01T12:54:11.909Z,99643.94
2022-12-01T12:56:40.739Z,99650.03
2022-12-01T12:59:09.927Z,99650.63
2022-12-01T13:01:42.166Z,99649.44
2022-12-01T13:04:21.694Z,99655.00
2022-12-01T13:07:03.824Z,99656.81
2022-12-01T13:09:39.593Z,99657.59
2022-12-01T13:12:09.512Z,99663.81
2022-12-01T13:14:39.493Z,99655.78
2022-12-01T13:17:16.685Z,99653.19
2022-12-01T13:19:43.449Z,99655.78
2022-12-01T13:22:11.990Z,99652.06
2022-12-01T13:24:38.961Z,99657.56
2022-12-01T13:27:07.009Z,99654.03
2022-12-01T13:29:37.503Z,99655.09
2022-12-01T13:32:30.609Z,99653.19
2022-12-01T13:34:57.425Z,99664.28
2022-12-01T13:37:32.392Z,99654.75
2022-12-01T13:40:21.064Z,99655.56
2022-12-01T13:43:15.143Z,99644.31
2022-12-01T13:45:42.215Z,99645.59
2022-12-01T13:48:36.763Z,99650.41
2022-12-01T13:51:04.006Z,99651.22
2022-12-01T13:53:31.048Z,99651.63
2022-12-01T13:56:04.081Z,99659.38
2022-12-01T13:58:34.160Z,99659.38
2022-12-01T14:01:22.652Z,99663.81
2022-12-01T14:04:03.650Z,99667.44
2022-12-01T14:06:49.380Z,99671.28
2022-12-01T14:09:31.418Z,99668.72
2022-12-01T14:11:58.814Z,99668.66
2022-12-01T14:14:26.807Z,99673.09
2022-12-01T14:16:54.930Z,99670.97
2022-12-01T14:19:40.862Z,99670.81
2022-12-01T14:22:07.926Z,99666.47
2022-12-01T14:24:36.753Z,99665.41
2022-12-01T14:27:04.412Z,99667.22
2022-12-01T14:29:35.604Z,99672.41
2022-12-01T14:32:02.383Z,99664.72
2022-12-01T14:34:34.200Z,99671.41
2022-12-01T14:37:07.854Z,99664.28
2022-12-01T14:39:36.939Z,99659.38
2022-12-01T14:42:49.587Z,99666.38
2022-12-01T14:45:20.877Z,99662.00
2022-12-01T14:48:04.019Z,99663.06
2022-12-01T14:50:51.305Z,99661.84
2022-12-01T14:53:29.483Z,99666.25
2022-12-01T14:55:58.942Z,99666.25
2022-12-01T14:58:30.190Z,99666.25
2022-12-01T15:00:57.325Z,99662.56
2022-12-01T15:03:28.951Z,99665.47
2022-12-01T15:05:59.016Z,99668.09
2022-12-01T15:09:04.266Z,99665.47
2022-12-01T15:11:23.516Z,99660.03
2022-12-01T15:13:52.163Z,99657.56
2022-12-01T15:16:20.901Z,99671.66
2022-12-01T15:18:47.771Z,99667.28
2022-12-01T15:21:44.900Z,99663.59
2022-12-01T15:24:21.761Z,99672.34
2022-12-01T15:26:55.954Z,99669.84
2022-12-01T15:29:30.043Z,99665.72
2022-12-01T15:32:06.364Z,99676.03
2022-12-01T15:34:36.291Z,99657.72
2022-12-01T15:37:04.655Z,99667.28
2022-12-01T15:39:41.594Z,99661.88
2022-12-01T15:42:26.186Z,99666.25
2022-12-01T15:45:22.555Z,99665.41
2022-12-01T15:47:51.054Z,99662.06
2022-12-01T15:50:31.356Z,99657.66
2022-12-01T15:52:58.483Z,99655.69
2022-12-01T15:55:28.463Z,99660.97
2022-12-01T15:57:55.662Z,99658.34
2022-12-01T16:00:22.773Z,99660.28
2022-12-01T16:02:54.331Z,99659.81
2022-12-01T16:05:26.117Z,99661.88
2022-12-01T16:10:39.927Z,99664.78
2022-12-01T16:13:34.936Z,99671.44
2022-12-01T16:16:19.474Z,99670.81
2022-12-01T16:19:00.119Z,99665.41
2022-12-01T16:21:26.916Z,99661.81
2022-12-01T16:24:05.025Z,99660.25
2022-12-01T16:26:32.647Z,99655.63
2022-12-01T16:28:59.734Z,99656.72
2022-12-01T16:31:26.862Z,99660.31
2022-12-01T16:34:13.938Z,99654.00
2022-12-01T16:36:45.476Z,99655.53
2022-12-01T16:39:15.773Z,99654.63
2022-12-01T16:41:44.751Z,99658.56
2022-12-01T16:44:27.970Z,99656.75
2022-12-01T16:46:55.972Z,99662.09
2022-12-01T16:49:23.091Z,99655.91
2022-12-01T16:51:56.056Z,99658.47
2022-12-01T16:54:23.914Z,99662.91
2022-12-01T16:56:51.325Z,99660.44
2022-12-01T16:59:18.431Z,99661.88
2022-12-01T17:01:45.222Z,99659.97
2022-12-01T17:04:12.291Z,99664.56
2022-12-01T17:06:39.078Z,99665.47
2022-12-01T17:09:06.170Z,99662.84
2022-12-01T17:11:32.930Z,99659.28
2022-12-01T17:14:00.019Z,99665.66
2022-12-01T17:16:26.818Z,99666.56
2022-12-01T17:18:53.906Z,99661.19
2022-12-01T17:21:20.699Z,99662.75
2022-12-01T17:23:47.826Z,99663.91
2022-12-01T17:26:15.839Z,99662.75
2022-12-01T17:28:42.862Z,99667.91
2022-12-01T17:31:09.703Z,99663.38
2022-12-01T17:33:36.850Z,99661.47
2022-12-01T17:36:08.794Z,99663.75
2022-12-01T17:38:40.222Z,99655.91
2022-12-01T17:41:11.510Z,99659.16
2022-12-01T17:43:38.945Z,99654.47
2022-12-01T17:46:07.108Z,99656.97
2022-12-01T17:48:41.821Z,99652.66
2022-12-01T17:51:09.072Z,99658.84
2022-12-01T17:53:36.415Z,99657.91
2022-12-01T17:56:06.860Z,99650.94
2022-12-01T17:58:33.853Z,99657.19
2022-12-01T18:01:00.606Z,99656.09
2022-12-01T18:03:27.689Z,99658.75
2022-12-01T18:05:58.462Z,99656.28
2022-12-01T18:08:26.204Z,99652.06
2022-12-01T18:10:53.366Z,99653.88
2022-12-01T18:13:21.534Z,99650.81
2022-12-01T18:15:48.954Z,99655.22
2022-12-01T18:18:16.111Z,99642.72
2022-12-01T18:20:43.349Z,99649.50
2022-12-01T18:23:10.939Z,99645.97
2022-12-01T18:25:38.380Z,99645.41
2022-12-01T18:28:06.173Z,99653.72
2022-12-01T18:30:33.348Z,99641.19
2022-12-01T18:33:00.768Z,99650.09
2022-12-01T18:35:31.790Z,99652.47
2022-12-01T18:37:59.252Z,99646.97
2022-12-01T18:40:25.973Z,99651.00
2022-12-01T18:42:52.996Z,99657.84
2022-12-01T18:45:21.392Z,99654.91
2022-12-01T18:47:48.639Z,99650.47
2022-12-01T18:50:15.388Z,99649.34
2022-12-01T18:52:42.381Z,99650.34
2022-12-01T18:55:09.404Z,99645.81
2022-12-01T18:57:36.473Z,99643.38
2022-12-01T19:00:05.118Z,99642.75
2022-12-01T19:02:32.219Z,99646.31
2022-12-01T19:04:59.421Z,99643.63
2022-12-01T19:07:29.774Z,99647.88
2022-12-01T19:09:56.909Z,99643.19
2022-12-01T19:12:23.959Z,99645.66
2022-12-01T19:14:53.089Z,99644.38
2022-12-01T19:17:20.272Z,99639.44
2022-12-01T19:19:47.037Z,99643.91
2022-12-01T19:22:14.124Z,99643.16
2022-12-01T19:24:42.806Z,99641.50
2022-12-01T19:27:13.102Z,99635.34
2022-12-01T19:29:39.811Z,99632.31
2022-12-01T19:32:07.242Z,99638.72
2022-12-01T19:34:34.539Z,99636.94
2022-12-01T19:37:01.571Z,99633.03
2022-12-01T19:39:28.413Z,99633.09
2022-12-01T19:41:56.943Z,99631.19
2022-12-01T19:44:23.708Z,99631.88
2022-12-01T19:46:50.761Z,99621.97
2022-12-01T19:49:17.536Z,99631.66
2022-12-01T19:51:44.797Z,99621.97
2022-12-01T19:54:18.809Z,99627.13
2022-12-01T19:56:46.171Z,99626.34
2022-12-01T19:59:14.352Z,99631.94
2022-12-01T20:01:41.527Z,99627.31
2022-12-01T20:04:08.411Z,99625.53
2022-12-01T20:06:36.111Z,99635.16
2022-12-01T20:09:04.509Z,99626.94
2022-12-01T20:11:32.991Z,99627.63
2022-12-01T20:13:59.843Z,99627.91
2022-12-01T20:16:27.541Z,99633.13
2022-12-01T20:18:54.596Z,99629.44
2022-12-01T20:21:26.592Z,99629.38
2022-12-01T20:23:58.202Z,99619.50
2022-12-01T20:26:30.428Z,99622.19
2022-12-01T20:28:59.994Z,99622.25
2022-12-01T20:31:27.460Z,99625.16
2022-12-01T20:33:55.903Z,99622.56
2022-12-01T20:36:23.044Z,99630.50
2022-12-01T20:38:49.920Z,99632.94
2022-12-01T20:41:17.142Z,99628.53
2022-12-01T20:43:43.905Z,99622.72
2022-12-01T20:46:11.909Z,99632.31
2022-12-01T20:48:38.933Z,99630.34
2022-12-01T20:51:06.470Z,99626.19
2022-12-01T20:53:33.339Z,99628.81
2022-12-01T20:56:07.975Z,99635.25
2022-12-01T20:58:37.685Z,99632.03
2022-12-01T21:01:16.291Z,99635.72
2022-12-01T21:03:43.622Z,99631.88
2022-12-01T21:06:11.622Z,99635.03
2022-12-01T21:08:39.551Z,99627.13
2022-12-01T21:11:13.496Z,99635.09
2022-12-01T21:13:42.204Z,99630.56
2022-12-01T21:16:29.217Z,99623.38
2022-12-01T21:19:00.379Z,99630.28
2022-12-01T21:21:28.869Z,99619.63
2022-12-01T21:24:07.820Z,99626.97
2022-12-01T21:26:38.805Z,99619.72
2022-12-01T21:29:20.813Z,99624.25
2022-12-01T21:31:49.738Z,99625.81
2022-12-01T21:34:22.639Z,99627.63
2022-12-01T21:36:50.562Z,99631.06
2022-12-01T21:39:19.170Z,99630.34
2022-12-01T21:41:46.362Z,99626.84
2022-12-01T21:44:15.448Z,99627.63
2022-12-01T21:46:42.814Z,99635.16
2022-12-01T21:49:18.758Z,99630.41
2022-12-01T21:51:46.022Z,99628.50
2022-12-01T21:54:19.231Z,99630.41
2022-12-01T21:56:47.206Z,99619.72
2022-12-01T21:59:19.808Z,99625.97
2022-12-01T22:01:47.932Z,99625.44
2022-12-01T22:04:25.722Z,99617.50
2022-12-01T22:06:53.663Z,99614.88
2022-12-01T22:09:38.244Z,99622.66
2022-12-01T22:12:14.349Z,99625.22
2022-12-01T22:14:41.066Z,99634.03
2022-12-01T22:17:08.845Z,99631.38
2022-12-01T22:19:37.051Z,99636.13
2022-12-01T22:22:15.580Z,99624.38
2022-12-01T22:24:48.366Z,99624.47
2022-12-01T22:27:31.036Z,99624.59
2022-12-01T22:29:58.835Z,99612.22
2022-12-01T22:32:32.175Z,99608.25
2022-12-01T22:35:33.129Z,99615.25
2022-12-01T22:38:01.316Z,99606.38
2022-12-01T22:40:43.402Z,99613.50
2022-12-01T22:43:14.083Z,99606.28
2022-12-01T22:45:41.092Z,99608.31
2022-12-01T22:48:19.631Z,99607.19
2022-12-01T22:50:51.488Z,99606.16
2022-12-01T22:53:19.978Z,99601.97
2022-12-01T22:55:46.758Z,99607.47
2022-12-01T22:58:40.659Z,99605.59
2022-12-01T23:01:25.302Z,99600.28
2022-12-01T23:04:15.270Z,99605.50
2022-12-01T23:06:53.198Z,99603.06
2022-12-01T23:09:29.657Z,99595.72
2022-12-01T23:12:04.966Z,99593.47
2022-12-01T23:14:32.715Z,99593.69
2022-12-01T23:17:07.362Z,99587.50
2022-12-01T23:19:34.636Z,99583.06
2022-12-01T23:22:01.349Z,99585.38
2022-12-01T23:24:33.506Z,99586.25
2022-12-01T23:27:00.826Z,99583.34
2022-12-01T23:29:27.903Z,99584.63
2022-12-01T23:31:54.940Z,99575.75
2022-12-01T23:34:22.087Z,99583.50
2022-12-01T23:36:50.030Z,99582.53
2022-12-01T23:39:18.005Z,99577.09
2022-12-01T23:41:45.897Z,99572.78
2022-12-01T23:44:20.394Z,99573.78
2022-12-01T23:46:48.934Z,99572.97
2022-12-01T23:49:19.649Z,99572.09
2022-12-01T23:51:56.017Z,99571.34
2022-12-01T23:54:33.792Z,99563.69
2022-12-01T23:57:22.688Z,99563.28
2022-12-01T23:59:50.614Z,99564.03
